createdAt,value
2023-05-12T00:00:49.912Z,2.50
2023-05-12T00:03:19.522Z,2.75
2023-05-12T00:05:47.582Z,3.55
2023-05-12T00:08:15.591Z,2.60
2023-05-12T00:10:43.565Z,3.13
2023-05-12T00:13:11.649Z,2.92
2023-05-12T00:15:39.805Z,2.55
2023-05-12T00:18:07.878Z,2.88
2023-05-12T00:20:37.479Z,2.83
2023-05-12T00:23:05.521Z,2.85
2023-05-12T00:25:33.585Z,2.72
2023-05-12T00:28:01.747Z,2.63
2023-05-12T00:30:29.785Z,2.70
2023-05-12T00:32:58.767Z,2.88
2023-05-12T00:35:26.790Z,2.28
2023-05-12T00:37:56.237Z,2.67
2023-05-12T00:40:24.187Z,2.65
2023-05-12T00:42:52.259Z,2.80
2023-05-12T00:45:21.835Z,2.97
2023-05-12T00:47:52.776Z,2.80
2023-05-12T00:50:21.818Z,2.85
2023-05-12T00:55:20.641Z,2.67
2023-05-12T00:57:48.812Z,2.70
2023-05-12T01:00:18.844Z,2.25
2023-05-12T01:02:48.851Z,3.00
2023-05-12T01:05:17.110Z,2.85
2023-05-12T01:07:47.756Z,2.67
2023-05-12T01:10:22.064Z,2.47
2023-05-12T01:12:50.432Z,2.42
2023-05-12T01:15:19.712Z,2.40
2023-05-12T01:17:53.885Z,2.50
2023-05-12T01:20:26.078Z,2.53
2023-05-12T01:22:56.209Z,2.47
2023-05-12T01:25:30.031Z,2.78
2023-05-12T01:28:00.400Z,3.00
2023-05-12T01:30:29.593Z,2.45
2023-05-12T01:32:58.120Z,2.30
2023-05-12T01:35:26.460Z,2.90
2023-05-12T01:38:00.536Z,2.67
2023-05-12T01:40:28.680Z,2.63
2023-05-12T01:43:00.055Z,2.47
2023-05-12T01:45:32.026Z,2.58
2023-05-12T01:48:00.248Z,2.25
2023-05-12T01:50:28.729Z,2.88
2023-05-12T01:53:05.775Z,2.88
2023-05-12T01:55:34.622Z,2.33
2023-05-12T01:58:04.650Z,2.58
2023-05-12T02:00:33.311Z,2.50
2023-05-12T02:03:03.269Z,2.20
2023-05-12T02:05:31.355Z,2.50
2023-05-12T02:07:59.479Z,2.50
2023-05-12T02:10:27.908Z,2.47
2023-05-12T02:12:55.999Z,2.83
2023-05-12T02:15:25.581Z,2.25
2023-05-12T02:17:54.503Z,3.05
2023-05-12T02:20:23.824Z,2.78
2023-05-12T02:22:51.874Z,2.60
2023-05-12T02:25:19.935Z,2.50
2023-05-12T02:27:48.575Z,2.70
2023-05-12T02:30:18.359Z,2.58
2023-05-12T02:32:48.654Z,2.63
2023-05-12T02:35:16.933Z,2.85
2023-05-12T02:37:44.844Z,2.25
2023-05-12T02:40:13.581Z,2.38
2023-05-12T02:42:43.494Z,2.70
2023-05-12T02:45:12.741Z,2.45
2023-05-12T02:47:41.080Z,2.75
2023-05-12T02:50:11.093Z,2.50
2023-05-12T02:52:39.201Z,2.60
2023-05-12T02:55:07.802Z,2.38
2023-05-12T02:57:35.813Z,2.20
2023-05-12T03:00:06.144Z,2.42
2023-05-12T03:02:38.393Z,2.50
2023-05-12T03:05:10.858Z,2.63
2023-05-12T03:07:39.508Z,2.58
2023-05-12T03:10:09.841Z,2.35
2023-05-12T03:12:38.205Z,2.47
2023-05-12T03:15:06.827Z,3.00
2023-05-12T03:17:34.966Z,2.85
2023-05-12T03:20:03.124Z,3.60
2023-05-12T03:22:32.924Z,2.80
2023-05-12T03:25:01.032Z,2.63
2023-05-12T03:27:30.034Z,2.67
2023-05-12T03:30:00.497Z,2.53
2023-05-12T03:32:29.228Z,2.90
2023-05-12T03:34:57.347Z,2.35
2023-05-12T03:37:25.378Z,3.05
2023-05-12T03:39:56.306Z,2.92
2023-05-12T03:42:25.014Z,2.50
2023-05-12T03:44:52.947Z,2.80
2023-05-12T03:47:21.368Z,2.70
2023-05-12T03:49:49.569Z,2.75
2023-05-12T03:52:17.623Z,2.63
2023-05-12T03:54:46.300Z,2.90
2023-05-12T03:57:18.336Z,3.00
2023-05-12T03:59:46.529Z,3.13
2023-05-12T04:02:14.699Z,2.63
2023-05-12T04:04:43.019Z,2.60
2023-05-12T04:07:10.976Z,2.60
2023-05-12T04:09:39.076Z,3.08
2023-05-12T04:12:07.754Z,2.92
2023-05-12T04:14:42.719Z,3.17
2023-05-12T04:17:11.698Z,2.70
2023-05-12T04:19:39.705Z,2.60
2023-05-12T04:22:07.895Z,3.03
2023-05-12T04:24:37.468Z,2.92
2023-05-12T04:27:06.229Z,2.67
2023-05-12T04:29:35.266Z,2.85
2023-05-12T04:32:05.133Z,3.10
2023-05-12T04:34:35.015Z,3.20
2023-05-12T04:37:03.312Z,3.13
2023-05-12T04:39:31.702Z,3.30
2023-05-12T04:42:01.340Z,3.13
2023-05-12T04:44:30.353Z,2.83
2023-05-12T04:46:58.498Z,2.92
2023-05-12T04:49:27.906Z,2.67
2023-05-12T04:51:56.182Z,2.75
2023-05-12T04:54:24.548Z,2.58
2023-05-12T04:56:52.574Z,2.35
2023-05-12T04:59:20.724Z,3.17
2023-05-12T05:01:50.985Z,2.92
2023-05-12T05:04:19.333Z,3.30
2023-05-12T05:06:49.166Z,3.00
2023-05-12T05:09:17.180Z,3.03
2023-05-12T05:11:45.652Z,3.10
2023-05-12T05:14:13.777Z,2.88
2023-05-12T05:16:41.990Z,3.30
2023-05-12T05:19:20.068Z,3.33
2023-05-12T05:21:55.471Z,3.00
2023-05-12T05:24:23.427Z,2.92
2023-05-12T05:26:51.443Z,3.30
2023-05-12T05:29:19.780Z,2.78
2023-05-12T05:31:48.146Z,3.33
2023-05-12T05:34:16.550Z,3.00
2023-05-12T05:36:44.935Z,3.15
2023-05-12T05:39:14.224Z,2.85
2023-05-12T05:41:42.309Z,2.55
2023-05-12T05:44:10.336Z,2.85
2023-05-12T05:46:38.480Z,3.35
2023-05-12T05:49:06.783Z,3.20
2023-05-12T05:51:34.709Z,3.10
2023-05-12T05:54:02.800Z,2.92
2023-05-12T05:56:33.288Z,3.15
2023-05-12T05:59:03.045Z,3.03
2023-05-12T06:01:31.092Z,2.35
2023-05-12T06:03:59.666Z,2.70
2023-05-12T06:06:27.879Z,2.85
2023-05-12T06:08:56.098Z,3.13
2023-05-12T06:11:24.205Z,2.95
2023-05-12T06:13:53.680Z,3.35
2023-05-12T06:16:21.639Z,3.10
2023-05-12T06:18:49.660Z,3.03
2023-05-12T06:21:17.671Z,2.80
2023-05-12T06:23:47.545Z,3.33
2023-05-12T06:26:16.009Z,3.00
2023-05-12T06:28:43.910Z,3.30
2023-05-12T06:31:13.280Z,2.78
2023-05-12T06:33:41.327Z,4.00
2023-05-12T06:36:10.637Z,2.92
2023-05-12T06:38:38.730Z,3.08
2023-05-12T06:41:06.859Z,3.53
2023-05-12T06:43:34.869Z,3.42
2023-05-12T06:46:05.032Z,3.30
2023-05-12T06:48:34.500Z,2.58
2023-05-12T06:51:02.646Z,3.05
2023-05-12T06:53:30.782Z,3.13
2023-05-12T06:55:59.088Z,2.70
2023-05-12T06:58:27.008Z,3.40
2023-05-12T07:00:55.001Z,3.10
2023-05-12T07:03:23.210Z,2.97
2023-05-12T07:05:52.814Z,3.20
2023-05-12T07:08:20.991Z,3.45
2023-05-12T07:10:49.098Z,3.90
2023-05-12T07:13:17.387Z,3.38
2023-05-12T07:15:45.431Z,3.42
2023-05-12T07:18:13.832Z,3.35
2023-05-12T07:20:41.844Z,3.30
2023-05-12T07:23:11.329Z,3.28
2023-05-12T07:25:39.433Z,3.53
2023-05-12T07:28:07.639Z,3.08
2023-05-12T07:30:35.878Z,3.22
2023-05-12T07:33:04.663Z,2.97
2023-05-12T07:35:32.782Z,3.47
2023-05-12T07:38:00.780Z,3.10
2023-05-12T07:40:30.224Z,3.47
2023-05-12T07:42:58.284Z,3.63
2023-05-12T07:45:26.284Z,3.17
2023-05-12T07:47:54.382Z,3.20
2023-05-12T07:50:22.447Z,3.00
2023-05-12T07:52:51.877Z,3.42
2023-05-12T07:55:21.377Z,3.15
2023-05-12T07:57:51.883Z,3.38
2023-05-12T08:00:20.404Z,2.80
2023-05-12T08:02:48.810Z,3.33
2023-05-12T08:05:17.182Z,3.13
2023-05-12T08:07:45.152Z,3.30
2023-05-12T08:10:14.123Z,3.40
2023-05-12T08:12:43.096Z,2.97
2023-05-12T08:15:12.801Z,2.90
2023-05-12T08:17:41.073Z,3.10
2023-05-12T08:20:10.197Z,3.33
2023-05-12T08:22:38.850Z,3.03
2023-05-12T08:25:09.659Z,2.75
2023-05-12T08:27:38.994Z,3.35
2023-05-12T08:30:07.936Z,2.80
2023-05-12T08:32:37.555Z,3.63
2023-05-12T08:35:06.272Z,2.90
2023-05-12T08:37:34.980Z,3.50
2023-05-12T08:40:04.132Z,3.65
2023-05-12T08:42:38.408Z,3.00
2023-05-12T08:45:08.910Z,3.40
2023-05-12T08:47:39.184Z,3.47
2023-05-12T08:50:09.900Z,2.90
2023-05-12T08:52:37.871Z,3.10
2023-05-12T08:55:06.947Z,2.97
2023-05-12T08:57:36.941Z,3.22
2023-05-12T09:00:09.990Z,3.25
2023-05-12T09:02:52.065Z,3.22
2023-05-12T09:05:22.064Z,3.53
2023-05-12T09:07:51.262Z,3.08
2023-05-12T09:10:34.571Z,3.40
2023-05-12T09:13:06.006Z,3.47
2023-05-12T09:15:39.543Z,3.50
2023-05-12T09:18:08.951Z,3.05
2023-05-12T09:20:37.536Z,3.70
2023-05-12T09:23:19.217Z,3.75
2023-05-12T09:25:48.299Z,3.05
2023-05-12T09:28:16.556Z,3.45
2023-05-12T09:30:44.635Z,3.15
2023-05-12T09:33:15.041Z,3.42
2023-05-12T09:35:45.428Z,2.75
2023-05-12T09:38:14.607Z,3.45
2023-05-12T09:40:43.229Z,3.00
2023-05-12T09:43:15.133Z,3.55
2023-05-12T09:45:44.112Z,3.17
2023-05-12T09:48:14.587Z,3.42
2023-05-12T09:50:48.402Z,3.28
2023-05-12T09:53:17.522Z,3.20
2023-05-12T09:55:46.270Z,3.50
2023-05-12T09:58:17.736Z,3.33
2023-05-12T10:03:21.889Z,3.15
2023-05-12T10:05:51.744Z,4.00
2023-05-12T10:08:24.056Z,3.30
2023-05-12T10:10:53.295Z,3.40
2023-05-12T10:13:21.415Z,3.30
2023-05-12T10:15:51.034Z,3.45
2023-05-12T10:18:20.732Z,3.47
2023-05-12T10:20:49.852Z,3.40
2023-05-12T10:23:19.783Z,3.47
2023-05-12T10:25:49.197Z,3.63
2023-05-12T10:28:17.456Z,3.78
2023-05-12T10:30:46.754Z,3.50
2023-05-12T10:33:15.809Z,3.60
2023-05-12T10:35:47.828Z,3.35
2023-05-12T10:38:18.793Z,3.40
2023-05-12T10:40:54.587Z,3.38
2023-05-12T10:43:24.881Z,3.28
2023-05-12T10:46:16.423Z,3.25
2023-05-12T10:48:54.051Z,3.17
2023-05-12T10:51:26.374Z,3.58
2023-05-12T10:54:02.342Z,3.47
2023-05-12T10:56:32.577Z,3.40
2023-05-12T10:59:08.988Z,3.55
2023-05-12T11:01:37.851Z,3.70
2023-05-12T11:04:14.035Z,3.03
2023-05-12T11:06:45.166Z,3.70
2023-05-12T11:09:13.694Z,3.28
2023-05-12T11:11:43.476Z,3.58
2023-05-12T11:14:11.936Z,3.42
2023-05-12T11:16:43.890Z,3.60
2023-05-12T11:19:12.591Z,3.00
2023-05-12T11:21:40.838Z,3.47
2023-05-12T11:24:14.487Z,3.33
2023-05-12T11:26:42.630Z,3.97
2023-05-12T11:29:10.563Z,3.33
2023-05-12T11:31:39.793Z,3.50
2023-05-12T11:34:13.129Z,3.10
2023-05-12T11:36:43.440Z,3.28
2023-05-12T11:39:17.471Z,3.25
2023-05-12T11:41:46.138Z,3.67
2023-05-12T11:44:15.778Z,3.50
2023-05-12T11:46:54.328Z,2.65
2023-05-12T11:49:22.429Z,3.42
2023-05-12T11:51:52.963Z,3.13
2023-05-12T11:54:22.765Z,3.17
2023-05-12T11:56:51.778Z,3.60
2023-05-12T11:59:30.819Z,3.25
2023-05-12T12:01:59.622Z,3.17
2023-05-12T12:04:35.370Z,3.13
2023-05-12T12:07:04.014Z,3.60
2023-05-12T12:09:34.841Z,3.50
2023-05-12T12:12:07.109Z,2.95
2023-05-12T12:14:36.532Z,3.75
2023-05-12T12:17:05.194Z,3.30
2023-05-12T12:19:33.425Z,3.13
2023-05-12T12:22:01.436Z,3.40
2023-05-12T12:24:29.568Z,3.13
2023-05-12T12:26:58.925Z,3.67
2023-05-12T12:29:28.468Z,3.25
2023-05-12T12:31:57.174Z,3.50
2023-05-12T12:34:25.205Z,3.70
2023-05-12T12:36:53.179Z,3.63
2023-05-12T12:39:21.766Z,3.70
2023-05-12T12:41:50.257Z,3.60
2023-05-12T12:44:19.589Z,3.30
2023-05-12T12:46:47.784Z,3.05
2023-05-12T12:49:15.825Z,3.58
2023-05-12T12:51:46.895Z,3.50
2023-05-12T12:54:15.728Z,3.38
2023-05-12T12:56:44.356Z,3.90
2023-05-12T12:59:12.906Z,3.60
2023-05-12T13:01:42.957Z,3.35
2023-05-12T13:04:11.154Z,3.30
2023-05-12T13:06:39.546Z,3.75
2023-05-12T13:09:07.534Z,3.90
2023-05-12T13:11:35.956Z,3.40
2023-05-12T13:14:04.552Z,3.33
2023-05-12T13:16:32.896Z,3.78
2023-05-12T13:19:02.231Z,3.47
2023-05-12T13:21:30.385Z,4.03
2023-05-12T13:23:58.382Z,3.78
2023-05-12T13:26:26.721Z,3.40
2023-05-12T13:28:54.744Z,3.35
2023-05-12T13:31:22.974Z,3.75
2023-05-12T13:33:51.040Z,3.83
2023-05-12T13:36:20.476Z,4.07
2023-05-12T13:38:48.545Z,3.50
2023-05-12T13:41:16.705Z,4.35
2023-05-12T13:43:44.948Z,3.67
2023-05-12T13:46:13.007Z,4.00
2023-05-12T13:48:41.909Z,3.50
2023-05-12T13:51:10.001Z,3.50
2023-05-12T13:53:39.998Z,3.80
2023-05-12T13:56:16.949Z,4.10
2023-05-12T13:58:45.497Z,3.35
2023-05-12T14:01:13.482Z,3.80
2023-05-12T14:03:42.029Z,3.53
2023-05-12T14:06:10.906Z,3.90
2023-05-12T14:08:41.594Z,3.38
2023-05-12T14:11:10.035Z,3.58
2023-05-12T14:13:38.162Z,3.60
2023-05-12T14:16:07.165Z,3.90
2023-05-12T14:18:35.173Z,3.58
2023-05-12T14:21:03.321Z,4.40
2023-05-12T14:23:31.234Z,3.88
2023-05-12T14:26:00.570Z,3.75
2023-05-12T14:28:29.020Z,3.67
2023-05-12T14:30:57.126Z,4.22
2023-05-12T14:33:25.152Z,3.72
2023-05-12T14:36:05.704Z,3.92
2023-05-12T14:38:35.026Z,3.70
2023-05-12T14:41:04.534Z,3.85
2023-05-12T14:43:32.585Z,3.90
2023-05-12T14:46:02.049Z,3.92
2023-05-12T14:48:30.432Z,3.75
2023-05-12T14:50:58.950Z,3.22
2023-05-12T14:53:27.161Z,3.70
2023-05-12T14:55:55.403Z,4.07
2023-05-12T14:58:25.084Z,3.83
2023-05-12T15:00:53.226Z,4.10
2023-05-12T15:03:21.934Z,3.92
2023-05-12T15:08:21.736Z,4.45
2023-05-12T15:10:50.044Z,3.58
2023-05-12T15:13:20.366Z,3.92
2023-05-12T15:15:51.030Z,4.20
2023-05-12T15:18:21.008Z,4.05
2023-05-12T15:20:49.011Z,3.70
2023-05-12T15:23:17.136Z,3.78
2023-05-12T15:25:45.149Z,2.97
2023-05-12T15:28:13.204Z,3.28
2023-05-12T15:30:41.177Z,3.33
2023-05-12T15:33:10.637Z,3.50
2023-05-12T15:35:41.650Z,3.13
2023-05-12T15:38:09.806Z,3.22
2023-05-12T15:40:38.092Z,3.17
2023-05-12T15:43:06.057Z,3.60
2023-05-12T15:45:37.229Z,3.38
2023-05-12T15:48:07.988Z,3.60
2023-05-12T15:50:38.937Z,4.03
2023-05-12T15:53:07.360Z,3.40
2023-05-12T15:55:35.489Z,3.15
2023-05-12T15:58:04.403Z,3.90
2023-05-12T16:00:32.563Z,3.63
2023-05-12T16:03:01.711Z,3.78
2023-05-12T16:05:30.194Z,3.30
2023-05-12T16:07:59.531Z,3.55
2023-05-12T16:10:27.469Z,4.03
2023-05-12T16:12:55.395Z,3.42
2023-05-12T16:15:23.391Z,3.83
2023-05-12T16:17:51.532Z,4.00
2023-05-12T16:20:19.696Z,3.78
2023-05-12T16:22:48.395Z,3.65
2023-05-12T16:25:18.648Z,3.88
2023-05-12T16:27:46.781Z,3.70
2023-05-12T16:30:17.214Z,3.80
2023-05-12T16:32:47.379Z,4.03
2023-05-12T16:35:15.739Z,3.53
2023-05-12T16:37:43.780Z,3.70
2023-05-12T16:40:12.267Z,3.95
2023-05-12T16:42:41.744Z,3.80
2023-05-12T16:45:11.968Z,3.85
2023-05-12T16:47:40.072Z,3.55
2023-05-12T16:50:09.582Z,3.63
2023-05-12T16:52:37.593Z,3.50
2023-05-12T16:55:06.795Z,3.80
2023-05-12T16:57:35.150Z,3.80
2023-05-12T17:00:06.103Z,4.22
2023-05-12T17:02:34.396Z,3.83
2023-05-12T17:05:02.428Z,3.83
2023-05-12T17:07:31.091Z,3.72
2023-05-12T17:09:59.133Z,4.05
2023-05-12T17:12:27.234Z,3.83
2023-05-12T17:15:06.152Z,3.88
2023-05-12T17:17:37.578Z,4.05
2023-05-12T17:20:07.081Z,3.53
2023-05-12T17:22:37.372Z,3.78
2023-05-12T17:25:06.283Z,3.70
2023-05-12T17:27:34.234Z,4.00
2023-05-12T17:30:04.353Z,4.40
2023-05-12T17:32:32.741Z,3.88
2023-05-12T17:35:02.318Z,4.07
2023-05-12T17:37:30.461Z,4.10
2023-05-12T17:39:59.457Z,3.92
2023-05-12T17:42:30.984Z,3.65
2023-05-12T17:44:59.432Z,4.03
2023-05-12T17:47:27.720Z,3.95
2023-05-12T17:49:56.557Z,4.07
2023-05-12T17:52:26.106Z,4.32
2023-05-12T17:54:57.170Z,4.20
2023-05-12T17:57:25.420Z,3.67
2023-05-12T17:59:53.497Z,4.30
2023-05-12T18:02:21.738Z,4.38
2023-05-12T18:04:50.031Z,4.15
2023-05-12T18:07:18.176Z,3.65
2023-05-12T18:09:47.448Z,3.97
2023-05-12T18:12:15.933Z,4.22
2023-05-12T18:14:43.959Z,4.10
2023-05-12T18:17:12.131Z,3.95
2023-05-12T18:19:40.050Z,4.60
2023-05-12T18:22:07.991Z,3.78
2023-05-12T18:24:36.259Z,4.30
2023-05-12T18:27:06.563Z,4.07
2023-05-12T18:29:34.745Z,4.65
2023-05-12T18:32:02.619Z,4.88
2023-05-12T18:34:30.915Z,4.20
2023-05-12T18:36:58.860Z,5.00
2023-05-12T18:39:26.836Z,4.32
2023-05-12T18:41:55.730Z,4.30
2023-05-12T18:44:25.067Z,4.80
2023-05-12T18:46:53.275Z,3.95
2023-05-12T18:49:21.367Z,4.03
2023-05-12T18:51:49.392Z,4.47
2023-05-12T18:54:17.363Z,4.32
2023-05-12T18:56:47.252Z,4.22
2023-05-12T18:59:15.317Z,4.40
2023-05-12T19:01:44.801Z,3.90
2023-05-12T19:04:12.849Z,4.40
2023-05-12T19:06:40.848Z,4.28
2023-05-12T19:09:08.771Z,4.72
2023-05-12T19:11:36.729Z,4.18
2023-05-12T19:14:04.713Z,4.25
2023-05-12T19:16:34.939Z,5.00
2023-05-12T19:19:04.807Z,4.47
2023-05-12T19:21:33.601Z,5.00
2023-05-12T19:24:02.194Z,3.90
2023-05-12T19:26:30.751Z,4.20
2023-05-12T19:29:00.465Z,4.68
2023-05-12T19:31:28.527Z,4.70
2023-05-12T19:33:56.619Z,4.07
2023-05-12T19:36:26.192Z,4.47
2023-05-12T19:38:54.235Z,4.20
2023-05-12T19:41:22.381Z,4.47
2023-05-12T19:43:50.604Z,4.35
2023-05-12T19:46:18.588Z,4.05
2023-05-12T19:48:46.768Z,4.63
2023-05-12T19:51:14.727Z,3.63
2023-05-12T19:53:44.163Z,3.80
2023-05-12T19:56:12.336Z,3.95
2023-05-12T19:58:40.314Z,4.20
2023-05-12T20:01:08.493Z,4.70
2023-05-12T20:03:36.492Z,4.43
2023-05-12T20:06:05.684Z,4.57
2023-05-12T20:08:33.594Z,4.18
2023-05-12T20:11:03.188Z,4.85
2023-05-12T20:13:32.451Z,4.10
2023-05-12T20:16:00.662Z,4.18
2023-05-12T20:18:28.871Z,4.45
2023-05-12T20:20:57.305Z,4.82
2023-05-12T20:23:25.532Z,4.38
2023-05-12T20:25:53.967Z,4.07
2023-05-12T20:28:24.173Z,4.30
2023-05-12T20:30:52.318Z,4.60
2023-05-12T20:33:20.536Z,4.93
2023-05-12T20:35:50.705Z,4.13
2023-05-12T20:38:18.673Z,4.05
2023-05-12T20:40:46.750Z,4.28
2023-05-12T20:43:15.152Z,4.13
2023-05-12T20:45:44.550Z,4.35
2023-05-12T20:48:12.735Z,4.25
2023-05-12T20:50:40.910Z,4.63
2023-05-12T20:53:08.957Z,4.82
2023-05-12T20:55:36.943Z,4.00
2023-05-12T20:58:04.974Z,4.20
2023-05-12T21:00:33.112Z,4.47
2023-05-12T21:03:03.873Z,5.00
2023-05-12T21:05:34.754Z,4.35
2023-05-12T21:08:02.802Z,4.13
2023-05-12T21:10:32.543Z,4.38
2023-05-12T21:13:00.523Z,4.53
2023-05-12T21:15:28.679Z,4.45
2023-05-12T21:17:56.776Z,4.22
2023-05-12T21:20:26.044Z,4.47
2023-05-12T21:22:54.115Z,4.30
2023-05-12T21:25:22.304Z,4.47
2023-05-12T21:27:50.379Z,4.40
2023-05-12T21:30:18.506Z,4.53
2023-05-12T21:32:47.247Z,4.72
2023-05-12T21:35:15.306Z,4.47
2023-05-12T21:37:45.222Z,4.57
2023-05-12T21:40:14.090Z,4.68
2023-05-12T21:42:42.191Z,4.55
2023-05-12T21:45:10.979Z,4.10
2023-05-12T21:47:39.232Z,4.10
2023-05-12T21:50:07.725Z,3.58
2023-05-12T21:52:36.463Z,3.45
2023-05-12T21:55:06.540Z,3.42
2023-05-12T21:57:34.552Z,3.25
2023-05-12T22:00:04.035Z,3.00
2023-05-12T22:02:37.680Z,3.30
2023-05-12T22:05:09.046Z,2.85
2023-05-12T22:07:37.095Z,3.13
2023-05-12T22:10:07.383Z,3.10
2023-05-12T22:12:35.379Z,2.80
2023-05-12T22:15:03.426Z,3.10
2023-05-12T22:17:31.572Z,3.17
2023-05-12T22:19:59.829Z,3.05
2023-05-12T22:22:27.853Z,3.10
2023-05-12T22:24:57.497Z,3.67
2023-05-12T22:27:27.086Z,3.10
2023-05-12T22:29:56.835Z,3.05
2023-05-12T22:32:25.045Z,2.72
2023-05-12T22:34:53.788Z,3.05
2023-05-12T22:37:22.217Z,3.00
2023-05-12T22:39:50.225Z,3.03
2023-05-12T22:42:18.157Z,3.22
2023-05-12T22:44:47.603Z,2.90
2023-05-12T22:47:15.673Z,2.97
2023-05-12T22:49:43.857Z,3.08
2023-05-12T22:52:11.802Z,3.22
2023-05-12T22:54:39.848Z,3.08
2023-05-12T22:57:07.925Z,2.78
2023-05-12T22:59:35.951Z,2.67
2023-05-12T23:02:05.493Z,2.75
2023-05-12T23:04:33.490Z,3.08
2023-05-12T23:07:01.479Z,3.00
2023-05-12T23:09:29.475Z,3.00
2023-05-12T23:11:57.540Z,2.70
2023-05-12T23:14:25.669Z,3.00
2023-05-12T23:16:53.853Z,2.83
2023-05-12T23:19:23.425Z,2.80
2023-05-12T23:21:51.422Z,3.20
2023-05-12T23:24:19.481Z,2.83
2023-05-12T23:26:47.511Z,2.78
2023-05-12T23:29:15.410Z,2.50
2023-05-12T23:31:43.562Z,2.53
2023-05-12T23:34:11.663Z,2.35
2023-05-12T23:36:41.154Z,2.80
2023-05-12T23:39:09.662Z,2.97
2023-05-12T23:41:37.597Z,2.30
2023-05-12T23:44:06.167Z,3.00
2023-05-12T23:46:34.290Z,2.80
2023-05-12T23:49:02.355Z,2.80
2023-05-12T23:51:30.905Z,2.83
2023-05-12T23:54:00.279Z,2.63
2023-05-12T23:56:28.237Z,2.53
2023-05-12T23:58:56.371Z,2.38
